createdAt,value
2023-01-07T00:01:43.604Z,87.50
2023-01-07T00:04:15.764Z,87.57
2023-01-07T00:06:46.908Z,87.60
2023-01-07T00:09:16.514Z,87.57
2023-01-07T00:11:45.164Z,87.50
2023-01-07T00:14:14.588Z,87.51
2023-01-07T00:16:43.003Z,87.51
2023-01-07T00:19:16.040Z,87.51
2023-01-07T00:21:43.491Z,87.52
2023-01-07T00:24:12.163Z,87.73
2023-01-07T00:26:41.564Z,87.76
2023-01-07T00:29:09.919Z,87.91
2023-01-07T00:31:39.866Z,88.08
2023-01-07T00:34:09.133Z,88.17
2023-01-07T00:36:42.281Z,88.21
2023-01-07T00:39:19.161Z,88.28
2023-01-07T00:42:08.369Z,88.50
2023-01-07T00:44:37.587Z,88.65
2023-01-07T00:47:05.117Z,88.71
2023-01-07T00:52:10.279Z,88.72
2023-01-07T00:54:37.713Z,88.51
2023-01-07T00:57:05.097Z,88.27
2023-01-07T00:59:32.554Z,88.24
2023-01-07T01:02:00.069Z,88.30
2023-01-07T01:04:27.630Z,88.37
2023-01-07T01:06:55.053Z,88.40
2023-01-07T01:09:25.048Z,88.40
2023-01-07T01:11:52.474Z,88.40
2023-01-07T01:14:20.118Z,88.40
2023-01-07T01:16:47.592Z,88.27
2023-01-07T01:19:15.549Z,88.17
2023-01-07T01:21:42.962Z,88.18
2023-01-07T01:24:10.401Z,88.31
2023-01-07T01:26:37.850Z,88.35
2023-01-07T01:29:05.484Z,88.40
2023-01-07T01:31:33.030Z,88.40
2023-01-07T01:34:00.591Z,88.38
2023-01-07T01:36:28.032Z,88.29
2023-01-07T01:38:57.215Z,88.30
2023-01-07T01:41:24.623Z,88.29
2023-01-07T01:43:52.717Z,88.15
2023-01-07T01:46:41.092Z,88.09
2023-01-07T01:49:29.457Z,88.22
2023-01-07T01:52:19.845Z,88.21
2023-01-07T01:54:54.960Z,88.19
2023-01-07T01:57:27.918Z,88.20
2023-01-07T01:59:57.764Z,88.19
2023-01-07T02:02:34.601Z,88.20
2023-01-07T02:05:04.585Z,88.19
2023-01-07T02:07:32.196Z,88.29
2023-01-07T02:10:19.341Z,88.24
2023-01-07T02:13:24.940Z,88.17
2023-01-07T02:16:17.141Z,88.08
2023-01-07T02:19:21.517Z,88.03
2023-01-07T02:22:21.377Z,88.10
2023-01-07T02:25:23.745Z,88.12
2023-01-07T02:28:08.670Z,88.28
2023-01-07T02:31:27.352Z,88.34
2023-01-07T02:34:46.355Z,88.20
2023-01-07T02:37:26.699Z,88.31
2023-01-07T02:40:38.829Z,88.40
2023-01-07T02:43:50.523Z,88.38
2023-01-07T02:46:47.414Z,88.39
2023-01-07T02:49:18.262Z,88.42
2023-01-07T02:51:46.808Z,88.50
2023-01-07T02:54:22.838Z,88.50
2023-01-07T02:57:33.888Z,88.37
2023-01-07T03:00:15.640Z,88.41
2023-01-07T03:03:29.835Z,88.53
2023-01-07T03:06:47.289Z,88.66
2023-01-07T03:09:36.437Z,88.74
2023-01-07T03:12:18.064Z,88.64
2023-01-07T03:15:07.534Z,88.50
2023-01-07T03:17:48.506Z,88.53
2023-01-07T03:20:20.368Z,88.60
2023-01-07T03:22:50.599Z,88.70
2023-01-07T03:25:22.602Z,88.65
2023-01-07T03:27:52.496Z,88.52
2023-01-07T03:30:21.588Z,88.38
2023-01-07T03:33:09.627Z,88.40
2023-01-07T03:35:42.439Z,88.53
2023-01-07T03:38:12.003Z,88.54
2023-01-07T03:40:39.862Z,88.66
2023-01-07T03:43:14.286Z,88.78
2023-01-07T03:45:42.982Z,88.98
2023-01-07T03:48:10.365Z,89.00
2023-01-07T03:50:37.842Z,89.10
2023-01-07T03:53:05.277Z,89.21
2023-01-07T03:55:32.607Z,89.39
2023-01-07T03:58:00.300Z,89.58
2023-01-07T04:00:27.827Z,89.65
2023-01-07T04:02:55.217Z,89.70
2023-01-07T04:05:22.793Z,89.65
2023-01-07T04:07:50.254Z,89.54
2023-01-07T04:10:17.837Z,89.49
2023-01-07T04:12:45.170Z,89.50
2023-01-07T04:15:12.716Z,89.57
2023-01-07T04:17:40.078Z,89.61
2023-01-07T04:20:08.640Z,89.62
2023-01-07T04:22:36.015Z,89.60
2023-01-07T04:25:03.724Z,89.56
2023-01-07T04:27:31.165Z,89.44
2023-01-07T04:29:58.532Z,89.46
2023-01-07T04:32:25.807Z,89.52
2023-01-07T04:34:53.144Z,89.50
2023-01-07T04:37:20.555Z,89.52
2023-01-07T04:39:47.928Z,89.60
2023-01-07T04:42:15.385Z,89.61
2023-01-07T04:44:42.756Z,89.59
2023-01-07T04:47:10.130Z,89.66
2023-01-07T04:49:37.442Z,89.60
2023-01-07T04:52:08.893Z,89.55
2023-01-07T04:54:36.277Z,89.43
2023-01-07T04:57:03.932Z,89.40
2023-01-07T04:59:31.297Z,89.31
2023-01-07T05:01:58.749Z,89.02
2023-01-07T05:04:26.075Z,89.06
2023-01-07T05:06:53.383Z,88.88
2023-01-07T05:09:20.818Z,88.85
2023-01-07T05:11:48.152Z,88.95
2023-01-07T05:14:15.534Z,89.03
2023-01-07T05:16:42.900Z,89.07
2023-01-07T05:19:11.538Z,89.08
2023-01-07T05:21:38.936Z,89.13
2023-01-07T05:24:06.543Z,89.07
2023-01-07T05:26:33.969Z,89.03
2023-01-07T05:29:01.398Z,89.03
2023-01-07T05:31:28.713Z,89.19
2023-01-07T05:33:56.030Z,89.15
2023-01-07T05:36:23.328Z,89.08
2023-01-07T05:38:50.686Z,88.89
2023-01-07T05:41:18.040Z,88.77
2023-01-07T05:43:45.427Z,88.71
2023-01-07T05:46:12.842Z,88.70
2023-01-07T05:48:40.415Z,88.79
2023-01-07T05:51:07.848Z,88.82
2023-01-07T05:53:35.517Z,88.78
2023-01-07T05:56:03.527Z,88.89
2023-01-07T05:58:30.841Z,88.95
2023-01-07T06:00:58.431Z,88.92
2023-01-07T06:03:25.976Z,88.90
2023-01-07T06:05:53.494Z,88.97
2023-01-07T06:08:21.013Z,88.99
2023-01-07T06:10:48.457Z,88.96
2023-01-07T06:13:15.828Z,88.90
2023-01-07T06:15:43.130Z,88.90
2023-01-07T06:18:10.645Z,88.98
2023-01-07T06:20:37.943Z,89.07
2023-01-07T06:23:05.389Z,89.17
2023-01-07T06:25:32.721Z,89.29
2023-01-07T06:27:59.973Z,89.28
2023-01-07T06:30:27.392Z,89.15
2023-01-07T06:32:54.873Z,88.90
2023-01-07T06:35:22.370Z,88.76
2023-01-07T06:37:49.807Z,88.69
2023-01-07T06:40:18.008Z,88.70
2023-01-07T06:42:45.453Z,88.70
2023-01-07T06:45:13.410Z,88.67
2023-01-07T06:47:44.136Z,88.60
2023-01-07T06:50:15.666Z,88.48
2023-01-07T06:52:44.167Z,88.39
2023-01-07T06:55:12.450Z,88.32
2023-01-07T06:57:40.110Z,88.22
2023-01-07T07:00:08.988Z,88.12
2023-01-07T07:02:37.089Z,88.10
2023-01-07T07:05:05.410Z,88.15
2023-01-07T07:07:33.008Z,88.13
2023-01-07T07:10:04.365Z,88.13
2023-01-07T07:12:31.873Z,88.08
2023-01-07T07:14:59.490Z,87.97
2023-01-07T07:17:27.752Z,87.99
2023-01-07T07:19:55.331Z,88.00
2023-01-07T07:22:23.291Z,88.00
2023-01-07T07:24:51.474Z,88.00
2023-01-07T07:27:19.031Z,87.96
2023-01-07T07:29:46.891Z,87.92
2023-01-07T07:32:14.560Z,87.85
2023-01-07T07:34:42.209Z,87.71
2023-01-07T07:37:10.064Z,87.70
2023-01-07T07:39:37.847Z,87.77
2023-01-07T07:42:05.817Z,87.80
2023-01-07T07:44:33.593Z,87.78
2023-01-07T07:47:01.255Z,87.70
2023-01-07T07:49:28.909Z,87.61
2023-01-07T07:51:56.375Z,87.70
2023-01-07T07:54:24.430Z,87.72
2023-01-07T07:56:51.989Z,87.62
2023-01-07T07:59:19.559Z,87.57
2023-01-07T08:01:47.665Z,87.40
2023-01-07T08:04:15.283Z,87.40
2023-01-07T08:06:43.081Z,87.34
2023-01-07T08:09:11.030Z,87.29
2023-01-07T08:11:38.694Z,87.15
2023-01-07T08:14:06.394Z,86.92
2023-01-07T08:16:34.149Z,86.98
2023-01-07T08:19:01.765Z,86.98
2023-01-07T08:21:29.649Z,87.04
2023-01-07T08:23:57.715Z,87.02
2023-01-07T08:26:25.256Z,87.00
2023-01-07T08:28:53.064Z,86.84
2023-01-07T08:31:21.663Z,86.37
2023-01-07T08:33:49.600Z,86.32
2023-01-07T08:36:22.982Z,86.19
2023-01-07T08:38:53.602Z,85.93
2023-01-07T08:41:25.790Z,86.00
2023-01-07T08:43:53.991Z,85.80
2023-01-07T08:46:21.894Z,85.61
2023-01-07T08:48:51.165Z,85.47
2023-01-07T08:51:18.999Z,85.45
2023-01-07T08:53:47.453Z,85.43
2023-01-07T08:56:15.103Z,85.20
2023-01-07T08:58:42.592Z,84.92
2023-01-07T09:01:10.697Z,84.97
2023-01-07T09:03:39.271Z,84.84
2023-01-07T09:06:08.027Z,84.70
2023-01-07T09:08:35.910Z,84.62
2023-01-07T09:11:03.569Z,84.74
2023-01-07T09:13:31.553Z,84.73
2023-01-07T09:15:59.931Z,84.80
2023-01-07T09:18:27.481Z,84.68
2023-01-07T09:20:55.067Z,84.63
2023-01-07T09:23:22.611Z,84.27
2023-01-07T09:25:50.561Z,84.03
2023-01-07T09:28:18.032Z,83.78
2023-01-07T09:30:45.859Z,83.74
2023-01-07T09:33:13.362Z,83.80
2023-01-07T09:35:41.530Z,83.79
2023-01-07T09:38:09.191Z,83.72
2023-01-07T09:40:39.695Z,83.79
2023-01-07T09:43:25.427Z,83.76
2023-01-07T09:45:58.377Z,83.70
2023-01-07T09:48:49.836Z,83.61
2023-01-07T09:51:44.392Z,83.49
2023-01-07T09:54:30.528Z,83.60
2023-01-07T09:56:58.796Z,83.53
2023-01-07T09:59:26.872Z,83.42
2023-01-07T10:02:11.392Z,83.24
2023-01-07T10:05:02.754Z,83.39
2023-01-07T10:08:28.723Z,83.41
2023-01-07T10:11:24.094Z,83.23
2023-01-07T10:14:17.651Z,83.14
2023-01-07T10:17:02.804Z,83.07
2023-01-07T10:19:53.933Z,82.78
2023-01-07T10:22:36.353Z,82.40
2023-01-07T10:25:18.338Z,82.13
2023-01-07T10:27:48.979Z,81.96
2023-01-07T10:30:24.869Z,81.74
2023-01-07T10:33:32.112Z,81.69
2023-01-07T10:36:28.573Z,81.66
2023-01-07T10:39:17.911Z,81.78
2023-01-07T10:42:20.092Z,82.07
2023-01-07T10:45:27.062Z,82.11
2023-01-07T10:53:35.567Z,81.81
2023-01-07T10:56:31.572Z,81.89
2023-01-07T10:59:00.157Z,81.58
2023-01-07T11:01:35.483Z,81.53
2023-01-07T11:04:17.693Z,81.27
2023-01-07T11:06:54.881Z,81.14
2023-01-07T11:09:39.754Z,81.07
2023-01-07T11:12:38.573Z,81.26
2023-01-07T11:15:20.631Z,81.06
2023-01-07T11:17:53.996Z,80.97
2023-01-07T11:20:49.454Z,80.75
2023-01-07T11:23:36.299Z,80.69
2023-01-07T11:26:22.773Z,80.65
2023-01-07T11:29:13.831Z,80.63
2023-01-07T11:31:56.947Z,80.30
2023-01-07T11:34:34.411Z,79.95
2023-01-07T11:37:03.907Z,79.73
2023-01-07T11:39:36.354Z,79.77
2023-01-07T11:42:40.088Z,79.17
2023-01-07T11:45:09.481Z,78.68
2023-01-07T11:47:45.585Z,78.94
2023-01-07T11:50:34.627Z,78.44
2023-01-07T11:53:14.051Z,78.30
2023-01-07T11:56:04.874Z,77.69
2023-01-07T11:58:39.283Z,78.31
2023-01-07T12:01:21.640Z,77.99
2023-01-07T12:04:05.434Z,77.55
2023-01-07T12:06:38.914Z,76.77
2023-01-07T12:09:58.114Z,76.72
2023-01-07T12:12:34.105Z,76.52
2023-01-07T12:15:47.411Z,76.59
2023-01-07T12:19:26.316Z,76.29
2023-01-07T12:22:23.571Z,76.65
2023-01-07T12:25:19.293Z,76.73
2023-01-07T12:28:24.735Z,76.58
2023-01-07T12:31:34.182Z,77.00
2023-01-07T12:34:30.201Z,76.86
2023-01-07T12:37:33.778Z,76.53
2023-01-07T12:40:15.927Z,76.66
2023-01-07T12:43:24.340Z,76.46
2023-01-07T12:46:20.349Z,75.96
2023-01-07T12:49:19.758Z,76.31
2023-01-07T12:52:09.636Z,76.59
2023-01-07T12:55:12.955Z,76.73
2023-01-07T12:57:44.712Z,76.56
2023-01-07T13:00:36.331Z,76.50
2023-01-07T13:03:32.148Z,76.86
2023-01-07T13:06:25.942Z,76.93
2023-01-07T13:09:41.932Z,76.69
2023-01-07T13:12:46.343Z,76.82
2023-01-07T13:15:20.575Z,76.54
2023-01-07T13:17:53.738Z,76.25
2023-01-07T13:21:01.354Z,76.20
2023-01-07T13:24:54.874Z,76.53
2023-01-07T13:27:38.986Z,76.82
2023-01-07T13:30:32.142Z,76.95
2023-01-07T13:33:22.230Z,76.72
2023-01-07T13:36:04.945Z,76.63
2023-01-07T13:39:00.770Z,76.82
2023-01-07T13:42:08.580Z,76.97
2023-01-07T13:44:57.745Z,76.93
2023-01-07T13:47:43.435Z,77.06
2023-01-07T13:50:41.661Z,77.23
2023-01-07T13:53:15.724Z,77.12
2023-01-07T13:55:48.531Z,77.13
2023-01-07T13:58:31.304Z,76.88
2023-01-07T14:01:10.252Z,76.97
2023-01-07T14:03:53.794Z,76.67
2023-01-07T14:06:21.541Z,76.80
2023-01-07T14:08:58.518Z,76.99
2023-01-07T14:11:32.334Z,77.16
2023-01-07T14:14:43.408Z,77.34
2023-01-07T14:17:28.179Z,77.44
2023-01-07T14:20:16.925Z,77.56
2023-01-07T14:22:59.750Z,77.80
2023-01-07T14:26:12.254Z,77.81
2023-01-07T14:29:20.465Z,77.88
2023-01-07T14:32:29.085Z,77.99
2023-01-07T14:35:43.766Z,77.94
2023-01-07T14:38:29.659Z,78.00
2023-01-07T14:41:03.436Z,78.14
2023-01-07T14:43:47.013Z,78.29
2023-01-07T14:46:24.194Z,78.59
2023-01-07T14:49:03.476Z,78.73
2023-01-07T14:51:49.318Z,78.93
2023-01-07T14:55:03.663Z,79.14
2023-01-07T14:58:20.477Z,79.37
2023-01-07T15:01:24.907Z,79.68
2023-01-07T15:04:38.649Z,79.97
2023-01-07T15:07:20.643Z,80.12
2023-01-07T15:10:28.059Z,80.32
2023-01-07T15:13:18.016Z,80.54
2023-01-07T15:16:04.301Z,80.87
2023-01-07T15:18:49.191Z,81.32
2023-01-07T15:21:29.416Z,81.64
2023-01-07T15:25:03.254Z,81.50
2023-01-07T15:27:50.184Z,81.49
2023-01-07T15:30:27.982Z,81.81
2023-01-07T15:33:41.811Z,81.89
2023-01-07T15:36:15.322Z,82.38
2023-01-07T15:38:57.255Z,82.64
2023-01-07T15:41:39.981Z,82.84
2023-01-07T15:44:23.436Z,83.01
2023-01-07T15:46:51.914Z,83.15
2023-01-07T15:49:26.203Z,83.24
2023-01-07T15:51:57.695Z,83.37
2023-01-07T15:54:39.527Z,83.53
2023-01-07T15:57:22.432Z,83.67
2023-01-07T15:59:56.990Z,83.73
2023-01-07T16:02:30.824Z,83.95
2023-01-07T16:05:04.136Z,84.16
2023-01-07T16:07:54.353Z,84.38
2023-01-07T16:10:32.549Z,84.61
2023-01-07T16:13:06.504Z,84.71
2023-01-07T16:15:40.857Z,84.87
2023-01-07T16:18:08.249Z,85.13
2023-01-07T16:20:41.015Z,85.25
2023-01-07T16:23:08.682Z,85.32
2023-01-07T16:26:16.082Z,85.39
2023-01-07T16:28:53.928Z,85.62
2023-01-07T16:31:25.665Z,85.67
2023-01-07T16:33:57.600Z,85.78
2023-01-07T16:36:40.111Z,85.88
2023-01-07T16:39:22.462Z,85.90
2023-01-07T16:41:50.596Z,86.12
2023-01-07T16:44:40.083Z,86.26
2023-01-07T16:47:23.411Z,86.50
2023-01-07T16:50:16.039Z,86.35
2023-01-07T16:52:56.715Z,86.22
2023-01-07T16:56:06.418Z,86.44
2023-01-07T16:58:54.410Z,86.65
2023-01-07T17:01:33.646Z,87.10
2023-01-07T17:04:08.536Z,87.36
2023-01-07T17:06:42.479Z,87.33
2023-01-07T17:09:27.754Z,87.35
2023-01-07T17:11:58.075Z,87.63
2023-01-07T17:14:34.674Z,87.93
2023-01-07T17:17:27.232Z,87.77
2023-01-07T17:20:15.456Z,88.04
2023-01-07T17:22:43.835Z,88.16
2023-01-07T17:25:24.116Z,87.91
2023-01-07T17:27:59.541Z,87.75
2023-01-07T17:30:37.316Z,87.86
2023-01-07T17:33:05.305Z,87.85
2023-01-07T17:35:32.944Z,87.62
2023-01-07T18:00:24.310Z,88.95
2023-01-07T18:02:52.455Z,88.78
2023-01-07T18:05:24.240Z,88.68
2023-01-07T18:07:53.342Z,88.55
2023-01-07T18:10:28.705Z,88.43
2023-01-07T18:12:56.869Z,88.42
2023-01-07T18:15:28.108Z,88.59
2023-01-07T18:18:00.370Z,88.60
2023-01-07T18:20:29.271Z,88.59
2023-01-07T18:23:14.556Z,88.47
2023-01-07T18:25:46.133Z,88.22
2023-01-07T18:28:13.871Z,88.16
2023-01-07T18:30:42.501Z,88.20
2023-01-07T18:33:26.046Z,88.42
2023-01-07T18:35:53.669Z,88.42
2023-01-07T18:38:21.309Z,88.43
2023-01-07T18:40:49.695Z,88.44
2023-01-07T18:43:19.098Z,88.43
2023-01-07T18:45:48.286Z,88.60
2023-01-07T18:48:18.275Z,88.82
2023-01-07T18:50:50.829Z,88.80
2023-01-07T18:53:26.431Z,88.84
2023-01-07T18:56:00.932Z,88.96
2023-01-07T18:58:29.029Z,89.10
2023-01-07T19:01:07.059Z,89.14
2023-01-07T19:03:38.256Z,89.08
2023-01-07T19:06:09.440Z,89.01
2023-01-07T19:08:39.152Z,89.00
2023-01-07T19:11:13.151Z,88.84
2023-01-07T19:13:42.950Z,88.76
2023-01-07T19:16:13.336Z,88.65
2023-01-07T19:18:41.830Z,88.57
2023-01-07T19:21:12.059Z,88.60
2023-01-07T19:23:40.467Z,88.66
2023-01-07T19:26:10.071Z,88.84
2023-01-07T19:28:37.751Z,88.98
2023-01-07T19:31:10.652Z,88.89
2023-01-07T19:33:39.669Z,88.67
2023-01-07T19:36:11.563Z,88.46
2023-01-07T19:38:46.792Z,88.36
2023-01-07T19:41:17.987Z,88.21
2023-01-07T19:43:47.291Z,88.27
2023-01-07T19:46:16.027Z,88.36
2023-01-07T19:48:47.194Z,88.24
2023-01-07T19:51:15.446Z,88.25
2023-01-07T19:53:43.911Z,88.25
2023-01-07T19:56:13.454Z,88.32
2023-01-07T19:58:41.671Z,88.35
2023-01-07T20:01:17.529Z,88.40
2023-01-07T20:03:45.513Z,88.40
2023-01-07T20:06:18.491Z,88.55
2023-01-07T20:08:47.280Z,88.89
2023-01-07T20:11:15.222Z,89.04
2023-01-07T20:13:46.324Z,89.01
2023-01-07T20:16:18.724Z,89.01
2023-01-07T20:18:49.067Z,89.06
2023-01-07T20:21:19.945Z,89.04
2023-01-07T20:23:48.469Z,89.03
2023-01-07T20:26:20.644Z,89.11
2023-01-07T20:28:49.107Z,89.11
2023-01-07T20:31:20.574Z,89.32
2023-01-07T20:33:50.048Z,89.43
2023-01-07T20:36:23.450Z,89.62
2023-01-07T20:38:51.656Z,89.80
2023-01-07T20:41:25.587Z,89.81
2023-01-07T20:43:57.027Z,89.81
2023-01-07T20:46:27.556Z,89.81
2023-01-07T20:48:56.605Z,89.91
2023-01-07T20:51:24.506Z,90.15
2023-01-07T20:53:52.424Z,90.05
2023-01-07T20:56:22.880Z,90.14
2023-01-07T20:58:51.389Z,90.20
2023-01-07T21:01:21.341Z,90.13
2023-01-07T21:03:49.492Z,90.04
2023-01-07T21:06:19.968Z,90.00
2023-01-07T21:08:49.729Z,89.88
2023-01-07T21:11:21.546Z,89.87
2023-01-07T21:13:50.675Z,90.00
2023-01-07T21:16:18.681Z,90.06
2023-01-07T21:18:46.727Z,90.09
2023-01-07T21:21:18.785Z,90.20
2023-01-07T21:23:47.651Z,90.39
2023-01-07T21:26:16.275Z,90.55
2023-01-07T21:28:44.972Z,90.75
2023-01-07T21:31:15.545Z,91.07
2023-01-07T21:33:45.167Z,91.13
2023-01-07T21:36:18.478Z,91.18
2023-01-07T21:38:52.092Z,91.06
2023-01-07T21:41:20.366Z,91.08
2023-01-07T21:43:48.233Z,90.96
2023-01-07T21:46:16.475Z,90.81
2023-01-07T21:48:47.095Z,90.78
2023-01-07T21:51:22.765Z,90.76
2023-01-07T21:53:57.524Z,90.70
2023-01-07T21:56:32.428Z,90.67
2023-01-07T21:59:00.525Z,90.59
2023-01-07T22:01:29.349Z,90.43
2023-01-07T22:03:59.529Z,90.32
2023-01-07T22:06:31.770Z,90.27
2023-01-07T22:09:06.978Z,90.20
2023-01-07T22:11:38.288Z,90.20
2023-01-07T22:14:05.951Z,90.20
2023-01-07T22:16:34.577Z,90.15
2023-01-07T22:19:02.944Z,90.06
2023-01-07T22:21:32.012Z,90.00
2023-01-07T22:24:00.111Z,90.10
2023-01-07T22:26:27.536Z,90.22
2023-01-07T22:29:02.633Z,90.26
2023-01-07T22:31:36.049Z,90.26
2023-01-07T22:34:06.396Z,90.19
2023-01-07T22:36:52.798Z,90.10
2023-01-07T22:39:29.770Z,90.03
2023-01-07T22:42:05.132Z,90.00
2023-01-07T22:44:44.557Z,90.06
2023-01-07T22:47:18.928Z,90.12
2023-01-07T22:49:48.956Z,90.17
2023-01-07T22:52:16.975Z,90.16
2023-01-07T22:54:45.122Z,90.01
2023-01-07T22:57:13.956Z,89.95
2023-01-07T22:59:41.494Z,89.82
2023-01-07T23:02:09.620Z,89.73
2023-01-07T23:04:37.263Z,89.70
2023-01-07T23:07:04.885Z,89.74
2023-01-07T23:09:35.684Z,89.72
2023-01-07T23:12:32.666Z,89.67
2023-01-07T23:15:03.549Z,89.64
2023-01-07T23:17:31.119Z,89.70
2023-01-07T23:19:58.747Z,89.70
2023-01-07T23:22:26.345Z,89.79
2023-01-07T23:24:54.008Z,89.80
2023-01-07T23:27:21.573Z,89.95
2023-01-07T23:29:49.263Z,90.00
2023-01-07T23:32:16.718Z,90.10
2023-01-07T23:34:44.353Z,90.10
2023-01-07T23:37:11.855Z,90.15
2023-01-07T23:39:39.322Z,90.14
2023-01-07T23:42:06.791Z,90.22
2023-01-07T23:44:34.232Z,90.24
2023-01-07T23:47:01.890Z,90.31
2023-01-07T23:49:29.633Z,90.30
2023-01-07T23:51:57.627Z,90.26
2023-01-07T23:54:31.811Z,90.36
2023-01-07T23:56:59.296Z,90.41
2023-01-07T23:59:26.912Z,90.31
